Time;durP1;ratioP1;P1;durP2;ratioP2;P2;SDS_P1;SDS_P2;PMS_P1;PMS_P2;Temp;Humidity;BMP_temperature;BMP_pressure;BME280_temperature;BME280_humidity;BME280_pressure;Samples;Min_cycle;Max_cycle;Signal;HPM_P1;HPM_P2
2022/07/26 00:01:18;;;;;;;10.83;3.00;;;19.20;99.90;;;;;;5136828;27;20116;-85
2022/07/26 00:03:44;;;;;;;14.38;2.92;;;19.20;99.90;;;;;;5138047;27;20066;-85
2022/07/26 00:06:10;;;;;;;12.63;3.50;;;19.20;99.90;;;;;;5137934;27;20067;-85
2022/07/26 00:08:35;;;;;;;11.73;2.80;;;19.20;99.90;;;;;;5119285;27;20031;-85
2022/07/26 00:11:01;;;;;;;9.43;3.10;;;19.40;99.90;;;;;;5137714;27;20035;-84
2022/07/26 00:13:27;;;;;;;13.23;3.10;;;19.10;99.90;;;;;;5119101;27;20062;-84
2022/07/26 00:15:53;;;;;;;14.47;3.30;;;19.10;99.90;;;;;;5119228;27;20043;-85
2022/07/26 00:18:20;;;;;;;12.93;3.30;;;19.10;99.90;;;;;;5136578;27;20083;-85
2022/07/26 00:20:47;;;;;;;;;;;19.10;99.90;;;;;;5119792;27;20395;-84
2022/07/26 00:23:12;;;;;;;15.45;2.65;;;19.10;99.90;;;;;;5119122;27;19915;-85
2022/07/26 00:25:39;;;;;;;11.23;2.73;;;19.10;99.90;;;;;;5136002;27;20114;-85
2022/07/26 00:28:05;;;;;;;12.18;3.35;;;19.00;99.90;;;;;;5118955;27;20120;-85
2022/07/26 00:30:30;;;;;;;14.73;3.40;;;19.10;99.90;;;;;;5136046;27;20043;-85
2022/07/26 00:32:56;;;;;;;11.97;3.43;;;19.10;99.90;;;;;;5118817;27;20039;-85
2022/07/26 00:35:22;;;;;;;60.33;8.10;;;19.10;99.90;;;;;;5136400;27;20479;-85
2022/07/26 00:37:47;;;;;;;13.13;3.10;;;18.90;99.90;;;;;;5136013;27;20096;-85
2022/07/26 00:40:14;;;;;;;10.73;3.10;;;19.40;99.90;;;;;;5118118;27;20039;-85
2022/07/26 00:42:40;;;;;;;14.27;3.22;;;19.00;99.90;;;;;;5137237;27;20413;-85
2022/07/26 00:45:08;;;;;;;10.05;2.72;;;18.90;99.90;;;;;;5135766;27;20035;-85
2022/07/26 00:47:34;;;;;;;12.25;3.13;;;19.00;99.90;;;;;;5118521;27;20053;-85
2022/07/26 00:50:01;;;;;;;12.75;3.20;;;19.00;99.90;;;;;;5118643;27;20482;-85
2022/07/26 00:52:26;;;;;;;16.67;3.05;;;19.00;99.90;;;;;;5135576;27;20039;-85
2022/07/26 00:54:54;;;;;;;11.87;3.00;;;19.00;99.90;;;;;;5118571;27;20447;-84
2022/07/26 00:57:21;;;;;;;13.05;3.40;;;19.10;99.90;;;;;;5135490;27;20114;-85
2022/07/26 00:59:48;;;;;;;13.95;3.03;;;19.00;99.90;;;;;;5118614;27;20047;-85
2022/07/26 01:02:15;;;;;;;14.10;3.58;;;19.00;99.90;;;;;;5135365;27;20398;-85
2022/07/26 01:04:43;;;;;;;13.80;3.38;;;18.90;99.90;;;;;;5135359;27;20039;-85
2022/07/26 01:07:10;;;;;;;14.40;3.60;;;18.90;99.90;;;;;;5135500;27;20031;-85
2022/07/26 01:09:36;;;;;;;14.07;3.40;;;18.90;99.90;;;;;;5118045;27;20118;-85
2022/07/26 01:12:02;;;;;;;15.70;3.83;;;18.90;99.90;;;;;;5119647;27;20152;-85
2022/07/26 01:14:28;;;;;;;13.57;3.60;;;18.80;99.90;;;;;;5121598;27;20212;-85
2022/07/26 01:16:53;;;;;;;17.77;3.87;;;18.80;99.90;;;;;;5121664;27;20037;-85
2022/07/26 01:19:19;;;;;;;11.40;2.93;;;18.70;99.90;;;;;;5138783;27;20034;-85
2022/07/26 01:21:45;;;;;;;12.27;3.33;;;19.00;99.90;;;;;;5138427;27;20119;-84
2022/07/26 01:24:11;;;;;;;14.10;3.07;;;18.70;99.90;;;;;;5138768;27;20034;-84
2022/07/26 01:26:37;;;;;;;11.20;3.10;;;18.70;99.90;;;;;;5157177;27;20139;-84
2022/07/26 01:29:03;;;;;;;13.60;3.80;;;18.60;99.90;;;;;;5121598;27;20038;-83
2022/07/26 01:31:29;;;;;;;12.82;3.35;;;18.60;99.90;;;;;;5121152;27;20042;-84
2022/07/26 01:33:54;;;;;;;14.20;3.50;;;18.60;99.90;;;;;;5138291;27;20043;-83
2022/07/26 01:36:20;;;;;;;15.63;3.77;;;18.60;99.90;;;;;;5120988;27;20045;-84
2022/07/26 01:38:46;;;;;;;12.23;3.43;;;18.50;99.90;;;;;;5120830;27;20038;-85
2022/07/26 01:41:12;;;;;;;15.27;3.67;;;18.90;99.90;;;;;;5120945;27;20079;-85
2022/07/26 01:43:38;;;;;;;15.47;3.90;;;18.50;99.90;;;;;;5121110;27;20031;-84
2022/07/26 01:46:06;;;;;;;15.67;3.70;;;18.50;99.90;;;;;;5138301;27;20039;-84
2022/07/26 01:48:32;;;;;;;14.20;3.50;;;18.30;99.90;;;;;;5138125;27;20387;-84
2022/07/26 01:50:57;;;;;;;14.30;3.97;;;18.30;99.90;;;;;;5137293;27;20042;-85
2022/07/26 01:53:23;;;;;;;13.67;3.87;;;18.30;99.90;;;;;;5138074;27;20035;-84
2022/07/26 01:55:49;;;;;;;15.27;4.07;;;18.20;99.90;;;;;;5138044;27;20034;-84
2022/07/26 01:58:14;;;;;;;18.73;4.30;;;18.30;99.90;;;;;;5120677;27;20034;-85
2022/07/26 02:00:40;;;;;;;15.70;4.17;;;18.30;99.90;;;;;;5120621;27;20079;-84
2022/07/26 02:03:05;;;;;;;12.67;3.53;;;18.30;99.90;;;;;;5120605;27;20461;-84
2022/07/26 02:05:31;;;;;;;15.80;4.43;;;18.30;99.90;;;;;;5120459;27;20038;-85
2022/07/26 02:07:57;;;;;;;13.03;3.67;;;18.30;99.90;;;;;;5155972;27;20041;-84
2022/07/26 02:10:23;;;;;;;16.03;4.20;;;18.20;99.90;;;;;;5137520;27;20035;-83
2022/07/26 02:12:49;;;;;;;15.32;4.32;;;18.30;99.90;;;;;;5137540;27;20059;-84
2022/07/26 02:15:15;;;;;;;16.98;4.10;;;18.10;99.90;;;;;;5137366;27;20510;-85
2022/07/26 02:17:41;;;;;;;18.13;3.50;;;18.00;99.90;;;;;;5120496;27;20038;-84
2022/07/26 02:20:08;;;;;;;13.88;3.83;;;18.20;99.90;;;;;;5137504;27;20049;-84
2022/07/26 02:22:34;;;;;;;11.45;3.63;;;18.00;99.90;;;;;;5137039;27;20159;-85
2022/07/26 02:24:59;;;;;;;13.23;3.67;;;18.00;99.90;;;;;;5137481;27;20095;-85
2022/07/26 02:27:25;;;;;;;21.47;5.53;;;17.90;99.90;;;;;;5137270;27;20034;-85
2022/07/26 02:29:50;;;;;;;15.60;3.80;;;17.90;99.90;;;;;;5137621;27;20389;-85
2022/07/26 02:32:16;;;;;;;14.00;4.17;;;17.90;99.90;;;;;;5155698;27;20085;-85
2022/07/26 02:34:41;;;;;;;15.70;3.90;;;17.80;99.90;;;;;;5120208;27;20046;-86
2022/07/26 02:37:07;;;;;;;11.10;3.50;;;17.90;99.90;;;;;;5120176;27;20096;-85
2022/07/26 02:39:33;;;;;;;15.00;4.20;;;17.90;99.90;;;;;;5155648;27;20031;-85
2022/07/26 02:42:00;;;;;;;15.87;4.23;;;18.10;99.90;;;;;;5155629;27;20085;-85
2022/07/26 02:44:27;;;;;;;18.60;4.05;;;17.90;99.90;;;;;;5119744;27;20080;-86
2022/07/26 02:46:53;;;;;;;18.23;3.70;;;17.90;99.90;;;;;;5137154;27;20037;-85
2022/07/26 02:49:19;;;;;;;9.90;3.87;;;17.90;99.90;;;;;;5137445;27;20034;-86
2022/07/26 02:51:45;;;;;;;15.13;4.18;;;17.80;99.90;;;;;;5155554;27;20038;-85
2022/07/26 02:54:11;;;;;;;15.60;3.83;;;18.00;99.90;;;;;;5120082;27;20413;-86
2022/07/26 02:56:37;;;;;;;13.40;4.17;;;18.00;99.90;;;;;;5137141;27;20114;-85
2022/07/26 02:59:03;;;;;;;16.40;4.37;;;17.80;99.90;;;;;;5136982;27;20608;-86
2022/07/26 03:01:29;;;;;;;15.13;3.88;;;18.20;99.90;;;;;;5136567;27;20064;-83
2022/07/26 03:03:55;;;;;;;17.67;4.13;;;17.80;99.90;;;;;;5155386;27;20030;-84
2022/07/26 03:06:21;;;;;;;14.10;3.67;;;17.70;99.90;;;;;;5119712;27;20042;-84
2022/07/26 03:08:49;;;;;;;12.83;4.10;;;17.80;99.90;;;;;;5137158;27;20039;-84
2022/07/26 03:11:15;;;;;;;14.57;4.43;;;18.30;99.90;;;;;;5136870;27;20169;-84
2022/07/26 03:13:41;;;;;;;19.03;3.90;;;17.80;99.90;;;;;;5136453;27;20090;-84
2022/07/26 03:16:07;;;;;;;15.60;3.70;;;17.90;99.90;;;;;;5136562;27;20417;-84
2022/07/26 03:18:32;;;;;;;16.27;4.40;;;17.80;99.90;;;;;;5136698;27;20035;-84
2022/07/26 03:20:58;;;;;;;11.90;3.97;;;17.80;99.90;;;;;;5136905;27;20296;-84
2022/07/26 03:23:24;;;;;;;12.40;3.57;;;17.80;99.90;;;;;;5119390;27;20045;-84
2022/07/26 03:25:49;;;;;;;10.77;3.87;;;17.80;99.90;;;;;;5155218;27;20041;-84
2022/07/26 03:28:15;;;;;;;15.97;4.03;;;17.80;99.90;;;;;;5155226;27;20027;-85
2022/07/26 03:30:41;;;;;;;15.63;4.17;;;17.80;99.90;;;;;;5119431;27;20052;-84
2022/07/26 03:33:06;;;;;;;13.10;3.90;;;17.80;99.90;;;;;;5136506;27;20039;-84
2022/07/26 03:35:32;;;;;;;12.27;4.17;;;17.80;99.90;;;;;;5155189;27;20034;-84
2022/07/26 03:37:58;;;;;;;15.83;4.33;;;17.90;99.90;;;;;;5136587;27;20122;-84
2022/07/26 03:40:23;;;;;;;11.70;4.00;;;17.90;99.90;;;;;;5119228;27;20034;-84
2022/07/26 03:42:49;;;;;;;14.47;4.33;;;18.30;99.90;;;;;;5136308;27;20038;-85
2022/07/26 03:45:15;;;;;;;15.20;4.97;;;18.10;99.90;;;;;;5136623;27;20378;-85
2022/07/26 03:47:41;;;;;;;17.13;4.32;;;17.90;99.90;;;;;;5136284;27;20082;-84
2022/07/26 03:50:08;;;;;;;14.45;4.18;;;17.90;99.90;;;;;;5155038;27;20031;-85
2022/07/26 03:52:34;;;;;;;12.63;3.95;;;17.90;99.90;;;;;;5136210;27;20038;-83
2022/07/26 03:54:59;;;;;;;13.37;4.43;;;17.90;99.90;;;;;;5136559;27;20187;-84
2022/07/26 03:57:25;;;;;;;17.07;4.00;;;17.90;99.90;;;;;;5136258;27;20045;-85
2022/07/26 03:59:51;;;;;;;10.47;4.23;;;18.30;99.90;;;;;;5136965;27;20413;-85
2022/07/26 04:02:16;;;;;;;11.17;3.90;;;18.40;99.90;;;;;;5154987;27;20035;-87
2022/07/26 04:04:42;;;;;;;15.03;3.83;;;18.10;99.90;;;;;;5136730;27;20041;-85
2022/07/26 04:07:08;;;;;;;12.13;4.40;;;17.80;99.90;;;;;;5120169;27;20038;-84
2022/07/26 04:09:33;;;;;;;13.90;3.97;;;17.90;99.90;;;;;;5119867;27;20118;-90
2022/07/26 04:11:59;;;;;;;10.37;3.67;;;17.90;99.90;;;;;;5136779;27;20043;-85
2022/07/26 04:14:25;;;;;;;12.87;3.97;;;17.90;99.90;;;;;;5121105;27;20467;-90
2022/07/26 04:16:50;;;;;;;14.10;4.27;;;17.90;99.90;;;;;;5140390;27;20447;-87
2022/07/26 04:19:16;;;;;;;14.27;3.37;;;17.80;99.90;;;;;;5140483;27;20046;-88
2022/07/26 04:21:41;;;;;;;11.30;4.10;;;18.00;99.90;;;;;;5140225;27;20129;-91
2022/07/26 04:24:07;;;;;;;13.67;4.40;;;18.00;99.90;;;;;;5158496;27;20047;-89
2022/07/26 04:26:33;;;;;;;10.40;2.97;;;18.00;99.90;;;;;;5122878;27;20038;-86
2022/07/26 04:28:58;;;;;;;9.93;4.13;;;18.20;99.90;;;;;;5140442;27;20037;-87
2022/07/26 04:31:24;;;;;;;9.50;3.80;;;18.10;99.90;;;;;;5123142;27;20049;-90
2022/07/26 04:33:50;;;;;;;7.28;2.95;;;18.00;99.90;;;;;;5139886;27;20042;-84
2022/07/26 04:36:16;;;;;;;11.40;3.27;;;18.10;99.90;;;;;;5158556;27;20035;-85
2022/07/26 04:38:42;;;;;;;7.83;2.30;;;18.00;99.90;;;;;;5123136;27;20827;-84
2022/07/26 04:41:07;;;;;;;5.77;1.97;;;18.00;99.90;;;;;;5122718;27;20045;-84
2022/07/26 04:43:33;;;;;;;5.80;2.30;;;18.00;99.90;;;;;;5122525;27;20034;-85
2022/07/26 04:45:59;;;;;;;6.73;2.13;;;18.00;99.90;;;;;;5139780;27;20035;-83
2022/07/26 04:48:25;;;;;;;5.17;2.10;;;18.00;99.90;;;;;;5139701;27;20382;-86
2022/07/26 04:50:51;;;;;;;7.13;2.37;;;18.30;99.90;;;;;;5158291;27;20268;-84
2022/07/26 04:53:16;;;;;;;5.43;2.15;;;18.00;99.90;;;;;;5158083;27;20478;-86
2022/07/26 04:55:42;;;;;;;5.47;2.30;;;18.20;99.90;;;;;;5122143;27;20122;-86
2022/07/26 04:58:09;;;;;;;5.20;1.57;;;18.00;99.90;;;;;;5158049;27;20132;-82
2022/07/26 05:00:35;;;;;;;5.43;2.10;;;17.90;99.90;;;;;;5139008;27;20031;-84
2022/07/26 05:03:01;;;;;;;5.20;1.65;;;18.00;99.90;;;;;;5139249;27;20474;-83
2022/07/26 05:05:29;;;;;;;5.93;2.13;;;18.00;99.90;;;;;;5139216;27;20042;-82
2022/07/26 05:07:59;;;;;;;9.07;2.38;;;18.00;99.90;;;;;;5157460;27;20167;-83
2022/07/26 05:10:43;;;;;;;9.13;2.40;;;18.00;99.90;;;;;;5139034;27;20049;-83
2022/07/26 05:13:08;;;;;;;8.73;1.88;;;18.00;99.90;;;;;;5156955;27;20600;-84
2022/07/26 05:15:35;;;;;;;8.47;2.00;;;18.10;99.90;;;;;;5157368;27;20113;-84
2022/07/26 05:18:02;;;;;;;;;;;18.20;99.90;;;;;;5157791;27;20055;-82
2022/07/26 05:20:28;;;;;;;6.93;2.20;;;18.10;99.90;;;;;;5157137;27;19922;-83
2022/07/26 05:22:54;;;;;;;6.53;1.73;;;18.20;99.90;;;;;;5157181;27;20082;-82
2022/07/26 05:25:19;;;;;;;4.07;1.57;;;18.20;99.90;;;;;;5156336;27;20039;-80
2022/07/26 05:27:45;;;;;;;8.87;1.90;;;18.20;99.90;;;;;;5156812;27;20066;-88
2022/07/26 05:30:11;;;;;;;7.07;2.43;;;18.20;99.90;;;;;;5157120;27;20030;-83
2022/07/26 05:32:36;;;;;;;5.53;1.60;;;18.30;99.90;;;;;;5138669;27;20049;-82
2022/07/26 05:35:02;;;;;;;4.47;2.00;;;18.40;99.90;;;;;;5120932;27;20524;-84
2022/07/26 05:37:28;;;;;;;5.30;1.60;;;18.50;99.90;;;;;;5120946;27;20070;-83
2022/07/26 05:39:54;;;;;;;4.83;1.40;;;18.40;99.90;;;;;;5120691;27;20038;-83
2022/07/26 05:42:19;;;;;;;5.00;1.37;;;18.60;99.90;;;;;;5138589;27;20083;-85
2022/07/26 05:44:46;;;;;;;6.73;1.70;;;18.60;99.90;;;;;;5138129;27;20031;-84
2022/07/26 05:47:12;;;;;;;5.05;1.50;;;18.60;99.90;;;;;;5120765;27;20121;-82
2022/07/26 05:49:38;;;;;;;6.90;1.67;;;18.70;99.90;;;;;;5156599;27;20118;-83
2022/07/26 05:52:04;;;;;;;4.33;1.47;;;18.70;99.90;;;;;;5156658;27;20463;-82
2022/07/26 05:54:29;;;;;;;5.30;1.30;;;18.60;99.90;;;;;;5137736;27;20042;-82
2022/07/26 05:56:55;;;;;;;6.57;1.60;;;18.60;99.90;;;;;;5156506;27;20035;-82
2022/07/26 05:59:20;;;;;;;6.17;1.50;;;18.60;99.90;;;;;;5138037;27;20039;-87
2022/07/26 06:01:46;;;;;;;3.13;1.27;;;18.60;99.90;;;;;;5120606;27;20034;-87
2022/07/26 06:04:12;;;;;;;5.53;1.30;;;18.60;99.90;;;;;;5120866;27;20027;-87
2022/07/26 06:06:38;;;;;;;3.97;1.10;;;18.60;99.90;;;;;;5137633;27;20034;-84
2022/07/26 06:09:03;;;;;;;6.47;1.43;;;18.60;99.90;;;;;;5137657;27;20121;-81
2022/07/26 06:11:29;;;;;;;9.63;1.80;;;18.60;99.90;;;;;;5156312;27;20049;-84
2022/07/26 06:13:54;;;;;;;5.83;1.40;;;18.60;99.90;;;;;;5155971;27;20103;-82
2022/07/26 06:16:20;;;;;;;5.53;1.43;;;18.50;99.90;;;;;;5137742;27;20049;-85
2022/07/26 06:18:46;;;;;;;6.27;1.47;;;18.70;99.90;;;;;;5120209;27;20443;-83
2022/07/26 06:21:11;;;;;;;3.80;1.17;;;18.40;99.90;;;;;;5156036;27;20045;-87
2022/07/26 06:23:37;;;;;;;7.13;1.47;;;18.50;99.90;;;;;;5138008;27;20074;-85
2022/07/26 06:26:04;;;;;;;5.20;1.33;;;18.50;99.90;;;;;;5120300;27;20062;-87
2022/07/26 06:28:29;;;;;;;;;;;18.50;99.90;;;;;;5120961;27;20352;-85
2022/07/26 06:30:55;;;;;;;6.82;1.50;;;18.60;99.90;;;;;;5137476;27;19922;-84
2022/07/26 06:33:20;;;;;;;6.07;1.20;;;18.90;99.90;;;;;;5120442;27;20039;-85
2022/07/26 06:35:46;;;;;;;6.57;1.37;;;18.60;99.90;;;;;;5137634;27;20031;-85
2022/07/26 06:38:12;;;;;;;4.50;1.13;;;18.80;99.90;;;;;;5136871;27;20069;-85
2022/07/26 06:40:37;;;;;;;4.00;1.00;;;18.70;99.90;;;;;;5120083;27;20076;-84
2022/07/26 06:43:03;;;;;;;6.57;1.10;;;18.70;99.90;;;;;;5137163;27;20074;-85
2022/07/26 06:45:29;;;;;;;9.23;1.27;;;19.00;99.90;;;;;;5155716;27;20034;-83
2022/07/26 06:47:55;;;;;;;6.90;0.90;;;18.90;99.90;;;;;;5137380;27;20031;-84
2022/07/26 06:50:21;;;;;;;4.90;0.90;;;18.90;99.90;;;;;;5155418;27;20474;-84
2022/07/26 06:52:47;;;;;;;3.47;0.85;;;18.90;99.90;;;;;;5120948;27;20043;-85
2022/07/26 06:55:13;;;;;;;2.63;0.70;;;19.00;99.90;;;;;;5137002;27;20042;-86
2022/07/26 06:57:39;;;;;;;1.67;0.73;;;18.70;99.90;;;;;;5119814;27;20034;-87
2022/07/26 07:00:06;;;;;;;4.10;0.83;;;18.90;99.90;;;;;;5137291;27;20088;-84
2022/07/26 07:02:32;;;;;;;4.28;0.70;;;18.80;99.90;;;;;;5155402;27;20043;-85
2022/07/26 07:04:58;;;;;;;3.60;0.87;;;19.00;99.90;;;;;;5155484;27;20035;-88
2022/07/26 07:07:24;;;;;;;3.60;0.87;;;18.30;99.90;;;;;;5119600;27;20060;-82
2022/07/26 07:09:49;;;;;;;4.43;0.83;;;18.00;99.90;;;;;;5155534;27;20486;-87
2022/07/26 07:12:15;;;;;;;4.80;0.87;;;17.90;99.90;;;;;;5119672;27;20410;-86
2022/07/26 07:14:40;;;;;;;5.93;0.80;;;17.80;99.90;;;;;;5136701;27;20050;-84
2022/07/26 07:17:07;;;;;;;3.10;0.83;;;17.80;99.90;;;;;;5119612;27;20038;-85
2022/07/26 07:19:35;;;;;;;2.67;0.68;;;17.70;99.90;;;;;;5136862;27;20406;-85
2022/07/26 07:22:02;;;;;;;3.03;0.70;;;18.20;99.90;;;;;;5136740;27;20046;-86
2022/07/26 07:24:27;;;;;;;2.65;0.88;;;17.80;99.90;;;;;;5119896;27;20046;-85
2022/07/26 07:26:53;;;;;;;1.80;0.70;;;18.00;99.90;;;;;;5119630;27;20039;-86
2022/07/26 07:29:19;;;;;;;3.43;0.90;;;18.30;99.90;;;;;;5119551;27;20034;-86
2022/07/26 07:31:46;;;;;;;3.63;0.90;;;18.20;99.90;;;;;;5119310;27;20043;-86
2022/07/26 07:34:13;;;;;;;1.90;0.68;;;18.30;99.90;;;;;;5119477;27;20035;-86
2022/07/26 07:36:38;;;;;;;;;;;18.40;99.90;;;;;;5119706;27;20044;-84
2022/07/26 07:39:04;;;;;;;2.83;0.80;;;18.60;99.90;;;;;;5119331;27;20005;-85
2022/07/26 07:41:33;;;;;;;0.83;0.40;;;18.60;99.90;;;;;;5119359;27;20093;-84
2022/07/26 07:44:01;;;;;;;2.65;0.70;;;18.70;99.90;;;;;;5119170;27;20034;-85
2022/07/26 07:46:26;;;;;;;3.78;1.10;;;18.70;99.90;;;;;;5136492;27;20031;-87
2022/07/26 07:48:52;;;;;;;3.30;0.80;;;18.90;99.90;;;;;;5136964;27;20443;-87
2022/07/26 07:51:18;;;;;;;2.17;0.67;;;18.90;99.90;;;;;;5122987;27;20061;-82
2022/07/26 07:53:44;;;;;;;1.50;0.50;;;19.00;99.90;;;;;;5140530;27;20042;-85
2022/07/26 07:56:10;;;;;;;2.70;0.80;;;19.10;99.90;;;;;;5159048;27;20030;-84
2022/07/26 07:58:35;;;;;;;4.10;0.90;;;19.20;99.90;;;;;;5123803;27;20094;-87
2022/07/26 08:01:01;;;;;;;2.30;0.60;;;19.30;99.90;;;;;;5122897;27;20082;-82
2022/07/26 08:03:27;;;;;;;3.28;0.80;;;19.20;99.90;;;;;;5140275;27;20039;-83
2022/07/26 08:05:53;;;;;;;2.37;0.63;;;19.40;99.90;;;;;;5158798;27;20497;-84
2022/07/26 08:08:19;;;;;;;2.30;0.50;;;19.30;99.90;;;;;;5122832;27;20570;-84
2022/07/26 08:10:45;;;;;;;2.53;0.70;;;19.40;99.90;;;;;;5158646;27;20034;-85
2022/07/26 08:13:10;;;;;;;2.97;0.63;;;19.30;99.90;;;;;;5122523;27;20505;-85
2022/07/26 08:15:36;;;;;;;4.17;0.97;;;19.30;99.90;;;;;;5140256;27;20039;-87
2022/07/26 08:18:02;;;;;;;2.33;0.73;;;19.30;99.90;;;;;;5122868;27;20037;-86
2022/07/26 08:20:27;;;;;;;7.77;0.90;;;18.90;99.90;;;;;;5158570;27;20035;-87
2022/07/26 08:22:53;;;;;;;3.00;0.80;;;18.80;99.90;;;;;;5122589;27;20034;-85
2022/07/26 08:25:19;;;;;;;3.47;0.77;;;18.80;99.90;;;;;;5122522;27;20442;-86
2022/07/26 08:27:45;;;;;;;3.13;0.60;;;18.90;99.90;;;;;;5139934;27;20121;-85
2022/07/26 08:30:11;;;;;;;3.90;1.00;;;18.90;99.90;;;;;;5139991;27;20069;-87
2022/07/26 08:32:36;;;;;;;1.53;0.63;;;19.00;99.90;;;;;;5122605;27;20565;-86
2022/07/26 08:35:02;;;;;;;4.20;0.90;;;19.00;99.90;;;;;;5139517;27;20035;-85
2022/07/26 08:37:28;;;;;;;4.73;0.77;;;19.10;99.90;;;;;;5139864;27;20372;-84
2022/07/26 08:39:54;;;;;;;6.57;1.20;;;19.20;99.90;;;;;;5139601;27;20056;-85
2022/07/26 08:42:23;;;;;;;7.33;0.90;;;19.20;99.90;;;;;;5139509;27;20125;-85
2022/07/26 08:44:50;;;;;;;1.83;0.80;;;19.20;99.90;;;;;;5157988;27;20035;-84
2022/07/26 08:47:18;;;;;;;3.05;0.60;;;19.40;99.90;;;;;;5122339;27;20222;-86
2022/07/26 08:49:44;;;;;;;3.67;0.82;;;19.60;99.90;;;;;;5122444;27;20034;-85
2022/07/26 08:52:13;;;;;;;3.67;0.90;;;19.90;99.90;;;;;;5158325;27;20370;-84
2022/07/26 08:54:49;;;;;;;2.65;0.70;;;19.80;99.90;;;;;;5157855;27;20389;-81
2022/07/26 08:57:15;;;;;;;4.40;0.95;;;19.90;99.90;;;;;;5139386;27;20038;-80
2022/07/26 08:59:41;;;;;;;4.93;1.07;;;19.90;99.90;;;;;;5157473;27;20394;-80
2022/07/26 09:02:11;;;;;;;2.70;0.70;;;19.90;99.90;;;;;;5139116;27;20039;-81
2022/07/26 09:04:43;;;;;;;7.70;0.85;;;19.90;99.90;;;;;;5157662;27;20047;-80
2022/07/26 09:07:17;;;;;;;5.53;0.90;;;20.00;99.90;;;;;;5157428;27;20118;-83
2022/07/26 09:10:10;;;;;;;4.15;0.70;;;19.90;99.90;;;;;;5157638;27;20075;-81
2022/07/26 09:12:38;;;;;;;2.90;0.75;;;19.90;99.90;;;;;;5134804;27;20061;-81
2022/07/26 09:15:06;;;;;;;2.55;0.90;;;19.80;99.90;;;;;;5157465;27;20162;-82
2022/07/26 09:17:43;;;;;;;3.08;0.90;;;19.80;99.90;;;;;;5157438;27;20150;-83
2022/07/26 09:20:10;;;;;;;;;;;19.80;99.90;;;;;;5157542;27;20034;-84
2022/07/26 09:22:56;;;;;;;5.43;0.98;;;19.80;99.90;;;;;;5138417;27;19919;-83
2022/07/26 09:25:23;;;;;;;3.20;0.73;;;20.00;99.90;;;;;;5121613;27;20049;-84
2022/07/26 09:27:50;;;;;;;4.93;1.13;;;20.10;99.90;;;;;;5157168;27;20039;-84
2022/07/26 09:30:16;;;;;;;5.35;1.13;;;20.20;99.90;;;;;;5157311;27;20035;-85
2022/07/26 09:33:02;;;;;;;1.87;0.50;;;20.40;99.90;;;;;;5140109;27;20038;-85
2022/07/26 09:35:29;;;;;;;4.05;0.70;;;20.50;99.90;;;;;;5149536;27;20441;-81
2022/07/26 09:37:56;;;;;;;3.53;0.80;;;20.50;99.90;;;;;;5135103;27;20130;-83
2022/07/26 09:40:21;;;;;;;4.25;0.80;;;20.50;99.90;;;;;;5136362;27;20087;-78
2022/07/26 09:42:57;;;;;;;3.80;0.87;;;20.20;99.90;;;;;;5136189;27;20479;-81
2022/07/26 09:45:23;;;;;;;6.05;1.13;;;20.20;99.90;;;;;;5136383;27;20073;-84
2022/07/26 09:47:49;;;;;;;3.08;0.70;;;20.10;99.90;;;;;;5119561;27;20031;-85
2022/07/26 09:50:16;;;;;;;3.43;1.13;;;20.10;99.90;;;;;;5120555;27;20049;-84
2022/07/26 09:53:11;;;;;;;3.90;0.70;;;20.20;99.90;;;;;;5121511;27;20061;-82
2022/07/26 09:55:57;;;;;;;4.85;0.90;;;20.40;99.90;;;;;;5109091;27;20552;-84
2022/07/26 09:58:23;;;;;;;1.40;0.60;;;20.40;99.90;;;;;;5117579;27;20057;-81
2022/07/26 10:00:50;;;;;;;1.48;0.57;;;20.60;99.90;;;;;;5136747;27;20043;-81
2022/07/26 10:03:15;;;;;;;2.70;1.00;;;20.70;99.90;;;;;;5117470;27;20419;-83
2022/07/26 10:05:41;;;;;;;6.77;1.23;;;20.80;99.90;;;;;;5120070;27;20122;-84
2022/07/26 10:08:07;;;;;;;5.10;0.87;;;21.00;99.90;;;;;;5102337;27;20035;-81
2022/07/26 10:10:37;;;;;;;3.22;0.80;;;21.20;99.90;;;;;;5136858;27;20035;-83
2022/07/26 10:13:04;;;;;;;3.45;0.98;;;21.20;99.90;;;;;;5134730;27;20059;-82
2022/07/26 10:15:40;;;;;;;4.30;1.00;;;21.10;99.90;;;;;;5099937;27;20047;-83
2022/07/26 10:18:08;;;;;;;2.78;0.90;;;21.20;99.90;;;;;;5116869;27;20035;-83
2022/07/26 10:20:39;;;;;;;3.42;0.75;;;21.20;99.90;;;;;;5136815;27;20043;-85
2022/07/26 10:23:32;;;;;;;3.28;0.73;;;21.20;99.90;;;;;;5137374;27;20122;-86
2022/07/26 10:25:58;;;;;;;4.03;0.88;;;21.20;99.90;;;;;;5118229;27;20050;-84
2022/07/26 10:28:27;;;;;;;4.38;0.88;;;21.30;99.90;;;;;;5099898;27;20031;-80
2022/07/26 10:31:23;;;;;;;1.83;0.73;;;21.40;99.90;;;;;;5133263;27;20570;-80
2022/07/26 10:33:49;;;;;;;3.95;1.00;;;21.40;99.90;;;;;;5133556;27;20047;-79
2022/07/26 10:36:55;;;;;;;4.72;0.90;;;21.40;99.90;;;;;;5134363;27;20509;-80
2022/07/26 10:39:24;;;;;;;4.57;1.33;;;21.50;99.90;;;;;;5076683;27;20110;-79
2022/07/26 10:41:59;;;;;;;3.58;1.10;;;21.50;99.90;;;;;;5134255;27;20035;-79
2022/07/26 10:44:30;;;;;;;8.57;1.33;;;21.50;99.90;;;;;;5134709;27;20046;-81
2022/07/26 10:47:07;;;;;;;3.92;1.00;;;21.40;99.90;;;;;;5134634;27;20497;-80
2022/07/26 10:49:37;;;;;;;4.97;1.00;;;21.10;99.90;;;;;;5134887;27;20132;-80
2022/07/26 10:52:10;;;;;;;4.13;1.13;;;20.90;99.90;;;;;;5134875;27;20035;-80
2022/07/26 10:54:54;;;;;;;5.40;1.05;;;20.80;99.90;;;;;;5135235;27;20378;-80
2022/07/26 10:57:20;;;;;;;7.88;0.93;;;20.50;99.90;;;;;;5134798;27;20046;-80
2022/07/26 10:59:45;;;;;;;6.97;1.30;;;20.30;99.90;;;;;;5116415;28;20043;-79
2022/07/26 11:02:19;;;;;;;3.67;1.03;;;19.90;99.90;;;;;;5134591;28;20114;-80
2022/07/26 11:04:45;;;;;;;6.47;1.30;;;19.80;99.90;;;;;;5134653;28;20050;-79
2022/07/26 11:07:14;;;;;;;3.63;1.03;;;19.70;99.90;;;;;;5134746;28;20035;-80
2022/07/26 11:09:40;;;;;;;4.05;1.17;;;19.70;99.90;;;;;;5133467;28;20031;-80
2022/07/26 11:12:20;;;;;;;4.22;1.45;;;19.60;99.90;;;;;;5134229;28;20039;-81
2022/07/26 11:14:46;;;;;;;4.60;1.15;;;19.60;99.90;;;;;;5134798;28;20448;-80
2022/07/26 11:17:27;;;;;;;3.87;1.20;;;19.80;99.90;;;;;;5116202;28;20122;-81
2022/07/26 11:19:54;;;;;;;4.70;0.90;;;19.90;99.90;;;;;;5134588;28;20119;-81
2022/07/26 11:22:20;;;;;;;5.47;1.30;;;20.00;99.90;;;;;;5134505;28;20049;-81
2022/07/26 11:24:46;;;;;;;8.85;1.50;;;20.20;99.90;;;;;;5138136;27;20462;-80
2022/07/26 11:27:12;;;;;;;3.90;1.00;;;20.30;99.90;;;;;;5120373;27;20037;-81
2022/07/26 11:29:38;;;;;;;5.40;1.17;;;20.20;99.90;;;;;;5138737;27;20120;-81
2022/07/26 11:32:05;;;;;;;3.15;0.70;;;20.20;99.90;;;;;;5138373;27;20060;-82
2022/07/26 11:34:33;;;;;;;5.20;1.02;;;20.20;99.90;;;;;;5138642;27;20047;-81
2022/07/26 11:37:00;;;;;;;2.72;0.90;;;20.10;99.90;;;;;;5138522;27;20062;-80
2022/07/26 11:39:28;;;;;;;7.90;1.20;;;20.10;99.90;;;;;;5138179;27;20479;-80
2022/07/26 11:42:13;;;;;;;8.18;1.52;;;20.00;99.90;;;;;;5138365;27;20073;-82
2022/07/26 11:44:44;;;;;;;4.60;1.20;;;19.90;99.90;;;;;;5138442;27;20035;-81
2022/07/26 11:47:15;;;;;;;4.55;1.10;;;19.90;99.90;;;;;;5138328;27;20039;-82
2022/07/26 11:49:41;;;;;;;5.07;1.52;;;19.90;99.90;;;;;;5138432;27;20088;-80
2022/07/26 11:52:07;;;;;;;8.83;1.40;;;20.00;99.90;;;;;;5138307;27;20035;-82
2022/07/26 11:54:46;;;;;;;5.23;1.10;;;19.90;99.90;;;;;;5119660;27;20035;-81
2022/07/26 11:57:13;;;;;;;3.25;0.65;;;19.80;99.90;;;;;;5120064;27;20085;-81
2022/07/26 11:59:39;;;;;;;3.47;1.13;;;19.70;99.90;;;;;;5137783;27;20573;-79
2022/07/26 12:02:07;;;;;;;5.43;1.02;;;19.80;99.90;;;;;;5138070;27;20122;-79
2022/07/26 12:04:39;;;;;;;4.72;0.80;;;20.10;99.90;;;;;;5138107;27;20080;-80
2022/07/26 12:07:13;;;;;;;6.07;1.10;;;20.00;99.90;;;;;;5138067;27;20110;-80
2022/07/26 12:09:50;;;;;;;4.25;1.20;;;20.20;99.90;;;;;;5137970;27;20034;-81
2022/07/26 12:12:30;;;;;;;5.95;1.13;;;20.30;99.90;;;;;;5137674;27;20055;-80
2022/07/26 12:15:00;;;;;;;3.05;1.15;;;20.30;99.90;;;;;;5137877;27;20046;-79
2022/07/26 12:17:27;;;;;;;6.10;1.55;;;20.20;99.90;;;;;;5137480;27;20463;-80
2022/07/26 12:19:53;;;;;;;5.38;1.10;;;20.10;99.90;;;;;;5137820;27;20039;-79
2022/07/26 12:22:20;;;;;;;4.57;1.20;;;20.10;99.90;;;;;;5137368;27;20103;-80
2022/07/26 12:24:54;;;;;;;6.18;1.60;;;20.30;99.90;;;;;;5137311;27;20064;-80
2022/07/26 12:27:22;;;;;;;3.33;1.20;;;20.30;99.90;;;;;;5137662;27;20052;-80
2022/07/26 12:29:55;;;;;;;5.57;1.25;;;20.30;99.90;;;;;;5137558;27;20060;-80
2022/07/26 12:32:32;;;;;;;5.40;1.08;;;20.40;99.90;;;;;;5137384;27;20501;-78
2022/07/26 12:35:11;;;;;;;3.80;0.80;;;20.50;99.90;;;;;;5136717;27;20487;-80
2022/07/26 12:37:50;;;;;;;2.85;1.15;;;20.70;99.90;;;;;;5137452;27;20074;-79
2022/07/26 12:40:23;;;;;;;4.40;1.20;;;20.80;99.90;;;;;;5118860;27;20050;-80
2022/07/26 12:42:48;;;;;;;3.03;1.00;;;20.70;99.90;;;;;;5136081;27;20054;-80
2022/07/26 12:45:19;;;;;;;5.30;1.07;;;20.90;99.90;;;;;;5137257;27;20031;-79
2022/07/26 12:47:46;;;;;;;4.85;1.15;;;20.90;99.90;;;;;;5137243;27;20039;-81